KHUT

Hutchinson Regional Airport

Hutchinson, Kansas, USA
METAR KHUT 190452Z AUTO 17006KT 10SM CLR 03/02 A2987 RMK AO2 SLP114 T00330022
Observed Flight Rules
Dec-19 @ 04:52 UTC (57 minutes ago) Visual Flight Rules
Wind Visibility Clouds
170° at 6 knots 10 miles
  • Clear skies
Temperatures Readings
Current 3°C / 37°F
Dewpoint 2°C / 36°F
Humidity 93%
Altimeter 29.87" Hg
Pressure 1011.4 hPa
Elevation 467
METAR KHUT 190452Z AUTO 17006KT 10SM CLR 03/02 A2987 RMK AO2 SLP114 T00330022
Observed Flight Rules
Dec-19 @ 04:52 UTC
(57 minutes ago)
VFR
Wind Visibility
170° at 6 knots 10 miles
Clouds
  • Clear skies
Temperature Dewpoint
3°C / 37°F 2°C / 36°F
Humidity Altimeter Pressure
93% 29.87" Hg 1011.4 hPa